sensor_id;sensor_type;location;lat;lon;timestamp;P1;durP1;ratioP1;P2;durP2;ratioP2
45316;SDS011;31053;55.870;37.592;2023-05-18T00:01:56;24.00;;;8.20;;
45316;SDS011;31053;55.870;37.592;2023-05-18T00:05:04;24.85;;;9.00;;
45316;SDS011;31053;55.870;37.592;2023-05-18T00:08:09;31.67;;;8.85;;
45316;SDS011;31053;55.870;37.592;2023-05-18T00:11:16;25.15;;;7.53;;
45316;SDS011;31053;55.870;37.592;2023-05-18T00:14:24;21.77;;;8.13;;
45316;SDS011;31053;55.870;37.592;2023-05-18T00:17:30;26.75;;;8.50;;
45316;SDS011;31053;55.870;37.592;2023-05-18T00:20:36;25.67;;;15.15;;
45316;SDS011;31053;55.870;37.592;2023-05-18T00:23:42;24.13;;;9.75;;
45316;SDS011;31053;55.870;37.592;2023-05-18T00:26:54;21.67;;;10.02;;
45316;SDS011;31053;55.870;37.592;2023-05-18T00:29:59;18.15;;;8.30;;
45316;SDS011;31053;55.870;37.592;2023-05-18T00:33:09;28.67;;;9.40;;
45316;SDS011;31053;55.870;37.592;2023-05-18T00:36:16;28.88;;;8.98;;
45316;SDS011;31053;55.870;37.592;2023-05-18T00:39:25;26.92;;;7.72;;
45316;SDS011;31053;55.870;37.592;2023-05-18T00:42:32;29.70;;;8.98;;
45316;SDS011;31053;55.870;37.592;2023-05-18T00:45:37;15.27;;;6.53;;
45316;SDS011;31053;55.870;37.592;2023-05-18T00:48:43;24.35;;;8.55;;
45316;SDS011;31053;55.870;37.592;2023-05-18T00:51:52;19.77;;;7.20;;
45316;SDS011;31053;55.870;37.592;2023-05-18T00:54:59;27.90;;;6.22;;
45316;SDS011;31053;55.870;37.592;2023-05-18T00:58:04;25.02;;;8.57;;
45316;SDS011;31053;55.870;37.592;2023-05-18T01:01:11;18.35;;;6.60;;
45316;SDS011;31053;55.870;37.592;2023-05-18T01:04:39;25.63;;;8.25;;
45316;SDS011;31053;55.870;37.592;2023-05-18T01:07:51;25.20;;;7.93;;
45316;SDS011;31053;55.870;37.592;2023-05-18T01:11:10;34.35;;;8.95;;
45316;SDS011;31053;55.870;37.592;2023-05-18T01:18:18;21.17;;;7.60;;
45316;SDS011;31053;55.870;37.592;2023-05-18T01:25:09;21.88;;;7.05;;
45316;SDS011;31053;55.870;37.592;2023-05-18T01:28:24;22.98;;;7.57;;
45316;SDS011;31053;55.870;37.592;2023-05-18T01:31:35;18.58;;;7.05;;
45316;SDS011;31053;55.870;37.592;2023-05-18T01:34:44;32.00;;;8.07;;
45316;SDS011;31053;55.870;37.592;2023-05-18T01:37:51;22.65;;;7.40;;
45316;SDS011;31053;55.870;37.592;2023-05-18T01:41:07;24.17;;;9.25;;
45316;SDS011;31053;55.870;37.592;2023-05-18T01:44:28;21.92;;;7.00;;
45316;SDS011;31053;55.870;37.592;2023-05-18T01:47:37;27.08;;;7.60;;
45316;SDS011;31053;55.870;37.592;2023-05-18T01:50:45;25.02;;;7.10;;
45316;SDS011;31053;55.870;37.592;2023-05-18T01:53:56;27.02;;;7.60;;
45316;SDS011;31053;55.870;37.592;2023-05-18T01:57:05;21.40;;;7.47;;
45316;SDS011;31053;55.870;37.592;2023-05-18T02:00:17;21.05;;;7.07;;
45316;SDS011;31053;55.870;37.592;2023-05-18T02:03:24;24.75;;;7.55;;
45316;SDS011;31053;55.870;37.592;2023-05-18T02:06:35;21.25;;;7.50;;
45316;SDS011;31053;55.870;37.592;2023-05-18T02:09:41;36.00;;;11.13;;
45316;SDS011;31053;55.870;37.592;2023-05-18T02:12:47;25.45;;;7.68;;
45316;SDS011;31053;55.870;37.592;2023-05-18T02:15:58;23.67;;;8.65;;
45316;SDS011;31053;55.870;37.592;2023-05-18T02:19:03;25.15;;;8.70;;
45316;SDS011;31053;55.870;37.592;2023-05-18T02:22:09;29.70;;;7.55;;
45316;SDS011;31053;55.870;37.592;2023-05-18T02:25:17;24.95;;;9.18;;
45316;SDS011;31053;55.870;37.592;2023-05-18T02:28:27;39.92;;;12.85;;
45316;SDS011;31053;55.870;37.592;2023-05-18T02:34:39;28.10;;;9.85;;
45316;SDS011;31053;55.870;37.592;2023-05-18T02:37:47;30.42;;;8.48;;
45316;SDS011;31053;55.870;37.592;2023-05-18T02:40:53;36.25;;;9.25;;
45316;SDS011;31053;55.870;37.592;2023-05-18T02:44:00;25.70;;;8.63;;
45316;SDS011;31053;55.870;37.592;2023-05-18T02:47:07;20.02;;;8.85;;
45316;SDS011;31053;55.870;37.592;2023-05-18T02:50:15;20.58;;;8.30;;
45316;SDS011;31053;55.870;37.592;2023-05-18T02:53:23;27.75;;;8.88;;
45316;SDS011;31053;55.870;37.592;2023-05-18T02:56:37;30.50;;;9.30;;
45316;SDS011;31053;55.870;37.592;2023-05-18T03:00:13;22.17;;;8.27;;
45316;SDS011;31053;55.870;37.592;2023-05-18T03:03:21;34.63;;;9.70;;
45316;SDS011;31053;55.870;37.592;2023-05-18T03:06:28;19.13;;;7.78;;
45316;SDS011;31053;55.870;37.592;2023-05-18T03:09:36;20.50;;;8.85;;
45316;SDS011;31053;55.870;37.592;2023-05-18T03:12:43;32.87;;;9.60;;
45316;SDS011;31053;55.870;37.592;2023-05-18T03:15:50;29.45;;;8.70;;
45316;SDS011;31053;55.870;37.592;2023-05-18T03:18:55;20.17;;;8.98;;
45316;SDS011;31053;55.870;37.592;2023-05-18T03:22:12;30.90;;;9.57;;
45316;SDS011;31053;55.870;37.592;2023-05-18T03:25:25;26.63;;;9.45;;
45316;SDS011;31053;55.870;37.592;2023-05-18T03:28:29;28.35;;;8.48;;
45316;SDS011;31053;55.870;37.592;2023-05-18T03:31:41;29.15;;;8.52;;
45316;SDS011;31053;55.870;37.592;2023-05-18T03:34:51;26.30;;;9.70;;
45316;SDS011;31053;55.870;37.592;2023-05-18T03:38:00;25.95;;;10.63;;
45316;SDS011;31053;55.870;37.592;2023-05-18T03:41:04;32.83;;;10.82;;
45316;SDS011;31053;55.870;37.592;2023-05-18T03:44:11;43.75;;;11.60;;
45316;SDS011;31053;55.870;37.592;2023-05-18T03:47:17;26.77;;;12.13;;
45316;SDS011;31053;55.870;37.592;2023-05-18T03:50:24;42.50;;;15.38;;
45316;SDS011;31053;55.870;37.592;2023-05-18T03:53:30;34.43;;;11.87;;
45316;SDS011;31053;55.870;37.592;2023-05-18T03:56:37;25.60;;;11.35;;
45316;SDS011;31053;55.870;37.592;2023-05-18T03:59:48;29.02;;;10.30;;
45316;SDS011;31053;55.870;37.592;2023-05-18T04:02:53;38.47;;;13.13;;
45316;SDS011;31053;55.870;37.592;2023-05-18T04:06:04;24.38;;;10.52;;
45316;SDS011;31053;55.870;37.592;2023-05-18T04:09:09;30.23;;;10.38;;
45316;SDS011;31053;55.870;37.592;2023-05-18T04:12:17;21.70;;;10.85;;
45316;SDS011;31053;55.870;37.592;2023-05-18T04:15:22;26.17;;;10.50;;
45316;SDS011;31053;55.870;37.592;2023-05-18T04:18:27;29.27;;;12.50;;
45316;SDS011;31053;55.870;37.592;2023-05-18T04:21:36;36.53;;;11.57;;
45316;SDS011;31053;55.870;37.592;2023-05-18T04:24:41;26.17;;;11.98;;
45316;SDS011;31053;55.870;37.592;2023-05-18T04:27:48;37.78;;;12.50;;
45316;SDS011;31053;55.870;37.592;2023-05-18T04:30:54;29.67;;;10.23;;
45316;SDS011;31053;55.870;37.592;2023-05-18T04:34:00;27.30;;;8.93;;
45316;SDS011;31053;55.870;37.592;2023-05-18T04:37:07;18.67;;;9.65;;
45316;SDS011;31053;55.870;37.592;2023-05-18T04:40:15;20.52;;;8.90;;
45316;SDS011;31053;55.870;37.592;2023-05-18T04:43:21;22.35;;;9.45;;
45316;SDS011;31053;55.870;37.592;2023-05-18T04:46:29;20.88;;;8.98;;
45316;SDS011;31053;55.870;37.592;2023-05-18T04:49:36;29.42;;;8.95;;
45316;SDS011;31053;55.870;37.592;2023-05-18T04:52:42;20.15;;;8.40;;
45316;SDS011;31053;55.870;37.592;2023-05-18T04:55:52;16.45;;;7.75;;
45316;SDS011;31053;55.870;37.592;2023-05-18T04:58:57;23.83;;;9.52;;
45316;SDS011;31053;55.870;37.592;2023-05-18T05:02:02;16.60;;;6.18;;
45316;SDS011;31053;55.870;37.592;2023-05-18T05:05:09;29.85;;;7.95;;
45316;SDS011;31053;55.870;37.592;2023-05-18T05:08:14;18.77;;;9.00;;
45316;SDS011;31053;55.870;37.592;2023-05-18T05:11:20;14.70;;;7.03;;
45316;SDS011;31053;55.870;37.592;2023-05-18T05:14:24;24.73;;;8.07;;
45316;SDS011;31053;55.870;37.592;2023-05-18T05:17:29;9.70;;;4.47;;
45316;SDS011;31053;55.870;37.592;2023-05-18T05:20:37;17.15;;;5.22;;
45316;SDS011;31053;55.870;37.592;2023-05-18T05:23:42;9.38;;;4.18;;
45316;SDS011;31053;55.870;37.592;2023-05-18T05:26:50;9.60;;;3.70;;
45316;SDS011;31053;55.870;37.592;2023-05-18T05:29:55;6.05;;;2.83;;
45316;SDS011;31053;55.870;37.592;2023-05-18T05:33:00;6.00;;;2.60;;
45316;SDS011;31053;55.870;37.592;2023-05-18T05:36:05;5.07;;;2.90;;
45316;SDS011;31053;55.870;37.592;2023-05-18T05:39:12;7.13;;;3.88;;
45316;SDS011;31053;55.870;37.592;2023-05-18T05:42:17;8.38;;;3.42;;
45316;SDS011;31053;55.870;37.592;2023-05-18T05:45:22;11.55;;;4.13;;
45316;SDS011;31053;55.870;37.592;2023-05-18T05:48:32;7.13;;;2.88;;
45316;SDS011;31053;55.870;37.592;2023-05-18T05:51:40;9.55;;;2.92;;
45316;SDS011;31053;55.870;37.592;2023-05-18T05:54:46;9.55;;;3.35;;
45316;SDS011;31053;55.870;37.592;2023-05-18T05:57:51;7.25;;;2.92;;
45316;SDS011;31053;55.870;37.592;2023-05-18T06:00:56;6.55;;;2.78;;
45316;SDS011;31053;55.870;37.592;2023-05-18T06:04:01;5.43;;;2.70;;
45316;SDS011;31053;55.870;37.592;2023-05-18T06:07:08;6.78;;;3.25;;
45316;SDS011;31053;55.870;37.592;2023-05-18T06:10:14;7.43;;;3.22;;
45316;SDS011;31053;55.870;37.592;2023-05-18T06:13:20;5.87;;;3.17;;
45316;SDS011;31053;55.870;37.592;2023-05-18T06:16:28;10.75;;;3.45;;
45316;SDS011;31053;55.870;37.592;2023-05-18T06:19:33;4.93;;;2.90;;
45316;SDS011;31053;55.870;37.592;2023-05-18T06:22:40;4.00;;;2.85;;
45316;SDS011;31053;55.870;37.592;2023-05-18T06:26:01;5.35;;;2.03;;
45316;SDS011;31053;55.870;37.592;2023-05-18T06:29:18;4.83;;;2.30;;
45316;SDS011;31053;55.870;37.592;2023-05-18T06:32:52;9.27;;;3.08;;
45316;SDS011;31053;55.870;37.592;2023-05-18T06:35:58;3.30;;;2.13;;
45316;SDS011;31053;55.870;37.592;2023-05-18T06:39:11;4.53;;;2.35;;
45316;SDS011;31053;55.870;37.592;2023-05-18T06:42:17;4.40;;;2.22;;
45316;SDS011;31053;55.870;37.592;2023-05-18T06:45:40;6.15;;;4.05;;
45316;SDS011;31053;55.870;37.592;2023-05-18T06:49:05;9.43;;;2.40;;
45316;SDS011;31053;55.870;37.592;2023-05-18T06:52:17;4.47;;;2.10;;
45316;SDS011;31053;55.870;37.592;2023-05-18T06:55:26;17.35;;;1.88;;
45316;SDS011;31053;55.870;37.592;2023-05-18T06:58:32;5.57;;;2.58;;
45316;SDS011;31053;55.870;37.592;2023-05-18T07:01:41;7.28;;;2.22;;
45316;SDS011;31053;55.870;37.592;2023-05-18T07:04:52;4.60;;;2.70;;
45316;SDS011;31053;55.870;37.592;2023-05-18T07:07:58;5.35;;;1.40;;
45316;SDS011;31053;55.870;37.592;2023-05-18T07:11:12;6.20;;;1.60;;
45316;SDS011;31053;55.870;37.592;2023-05-18T07:14:18;12.35;;;2.00;;
45316;SDS011;31053;55.870;37.592;2023-05-18T07:17:23;3.05;;;1.58;;
45316;SDS011;31053;55.870;37.592;2023-05-18T07:20:31;3.22;;;1.30;;
45316;SDS011;31053;55.870;37.592;2023-05-18T07:23:35;5.95;;;2.90;;
45316;SDS011;31053;55.870;37.592;2023-05-18T07:26:40;3.72;;;2.13;;
45316;SDS011;31053;55.870;37.592;2023-05-18T07:29:49;12.60;;;1.60;;
45316;SDS011;31053;55.870;37.592;2023-05-18T07:32:57;5.38;;;2.00;;
45316;SDS011;31053;55.870;37.592;2023-05-18T07:36:06;3.95;;;1.55;;
45316;SDS011;31053;55.870;37.592;2023-05-18T07:39:13;4.90;;;1.38;;
45316;SDS011;31053;55.870;37.592;2023-05-18T07:42:22;7.15;;;2.60;;
45316;SDS011;31053;55.870;37.592;2023-05-18T07:45:27;5.90;;;1.77;;
45316;SDS011;31053;55.870;37.592;2023-05-18T07:48:32;2.83;;;1.50;;
45316;SDS011;31053;55.870;37.592;2023-05-18T07:51:40;2.25;;;1.13;;
45316;SDS011;31053;55.870;37.592;2023-05-18T08:26:14;6.18;;;2.05;;
45316;SDS011;31053;55.870;37.592;2023-05-18T08:29:22;9.27;;;2.10;;
45316;SDS011;31053;55.870;37.592;2023-05-18T08:32:29;6.82;;;2.65;;
45316;SDS011;31053;55.870;37.592;2023-05-18T08:35:34;4.53;;;2.10;;
45316;SDS011;31053;55.870;37.592;2023-05-18T08:38:40;3.97;;;1.63;;
45316;SDS011;31053;55.870;37.592;2023-05-18T08:42:06;10.70;;;2.97;;
45316;SDS011;31053;55.870;37.592;2023-05-18T08:45:22;9.35;;;2.03;;
45316;SDS011;31053;55.870;37.592;2023-05-18T08:48:44;13.43;;;2.65;;
45316;SDS011;31053;55.870;37.592;2023-05-18T08:51:54;9.00;;;2.67;;
45316;SDS011;31053;55.870;37.592;2023-05-18T08:55:04;3.83;;;1.92;;
45316;SDS011;31053;55.870;37.592;2023-05-18T09:14:45;3.33;;;1.98;;
45316;SDS011;31053;55.870;37.592;2023-05-18T09:17:56;5.18;;;1.98;;
45316;SDS011;31053;55.870;37.592;2023-05-18T09:21:03;6.55;;;1.70;;
45316;SDS011;31053;55.870;37.592;2023-05-18T09:24:09;4.10;;;2.08;;
45316;SDS011;31053;55.870;37.592;2023-05-18T09:27:14;2.60;;;1.90;;
45316;SDS011;31053;55.870;37.592;2023-05-18T09:30:23;3.75;;;1.40;;
45316;SDS011;31053;55.870;37.592;2023-05-18T09:33:31;5.05;;;1.85;;
45316;SDS011;31053;55.870;37.592;2023-05-18T09:36:37;3.00;;;1.90;;
45316;SDS011;31053;55.870;37.592;2023-05-18T09:48:08;6.40;;;2.00;;
45316;SDS011;31053;55.870;37.592;2023-05-18T09:51:13;1.65;;;1.50;;
45316;SDS011;31053;55.870;37.592;2023-05-18T09:54:20;8.30;;;1.90;;
45316;SDS011;31053;55.870;37.592;2023-05-18T10:00:02;2.67;;;1.60;;
45316;SDS011;31053;55.870;37.592;2023-05-18T10:06:25;2.38;;;1.95;;
45316;SDS011;31053;55.870;37.592;2023-05-18T10:09:30;5.10;;;1.48;;
45316;SDS011;31053;55.870;37.592;2023-05-18T10:12:38;3.75;;;1.48;;
45316;SDS011;31053;55.870;37.592;2023-05-18T10:15:46;7.50;;;1.85;;
45316;SDS011;31053;55.870;37.592;2023-05-18T10:18:56;8.70;;;1.92;;
45316;SDS011;31053;55.870;37.592;2023-05-18T10:22:02;2.13;;;1.90;;
45316;SDS011;31053;55.870;37.592;2023-05-18T10:25:07;5.80;;;2.90;;
45316;SDS011;31053;55.870;37.592;2023-05-18T10:28:17;2.30;;;1.52;;
45316;SDS011;31053;55.870;37.592;2023-05-18T10:36:07;2.20;;;1.83;;
45316;SDS011;31053;55.870;37.592;2023-05-18T10:39:13;5.50;;;1.55;;
45316;SDS011;31053;55.870;37.592;2023-05-18T10:42:18;3.90;;;1.75;;
45316;SDS011;31053;55.870;37.592;2023-05-18T10:45:23;6.32;;;2.60;;
45316;SDS011;31053;55.870;37.592;2023-05-18T10:48:29;4.90;;;2.72;;
45316;SDS011;31053;55.870;37.592;2023-05-18T10:51:38;7.97;;;1.80;;
45316;SDS011;31053;55.870;37.592;2023-05-18T10:54:47;6.40;;;1.80;;
45316;SDS011;31053;55.870;37.592;2023-05-18T10:58:00;3.15;;;1.75;;
45316;SDS011;31053;55.870;37.592;2023-05-18T11:01:29;3.72;;;2.45;;
45316;SDS011;31053;55.870;37.592;2023-05-18T11:04:57;4.20;;;1.65;;
45316;SDS011;31053;55.870;37.592;2023-05-18T11:08:01;3.80;;;1.77;;
45316;SDS011;31053;55.870;37.592;2023-05-18T11:11:08;6.57;;;1.88;;
45316;SDS011;31053;55.870;37.592;2023-05-18T11:14:13;2.28;;;1.42;;
45316;SDS011;31053;55.870;37.592;2023-05-18T11:17:30;2.95;;;1.88;;
45316;SDS011;31053;55.870;37.592;2023-05-18T11:20:36;2.45;;;1.60;;
45316;SDS011;31053;55.870;37.592;2023-05-18T11:24:15;3.75;;;1.50;;
45316;SDS011;31053;55.870;37.592;2023-05-18T11:37:00;4.68;;;2.00;;
45316;SDS011;31053;55.870;37.592;2023-05-18T11:43:56;5.72;;;4.35;;
45316;SDS011;31053;55.870;37.592;2023-05-18T11:47:55;2.40;;;1.83;;
45316;SDS011;31053;55.870;37.592;2023-05-18T11:51:00;6.53;;;1.83;;
45316;SDS011;31053;55.870;37.592;2023-05-18T11:54:07;4.80;;;2.13;;
45316;SDS011;31053;55.870;37.592;2023-05-18T11:57:18;3.33;;;2.65;;
45316;SDS011;31053;55.870;37.592;2023-05-18T12:00:39;5.45;;;2.03;;
45316;SDS011;31053;55.870;37.592;2023-05-18T12:03:45;9.35;;;5.00;;
45316;SDS011;31053;55.870;37.592;2023-05-18T12:06:54;3.63;;;2.42;;
45316;SDS011;31053;55.870;37.592;2023-05-18T12:10:00;6.07;;;2.42;;
45316;SDS011;31053;55.870;37.592;2023-05-18T12:13:06;2.78;;;1.48;;
45316;SDS011;31053;55.870;37.592;2023-05-18T12:16:16;3.72;;;1.77;;
45316;SDS011;31053;55.870;37.592;2023-05-18T12:19:26;2.28;;;1.23;;
45316;SDS011;31053;55.870;37.592;2023-05-18T12:24:55;8.65;;;3.22;;
45316;SDS011;31053;55.870;37.592;2023-05-18T12:28:00;4.43;;;1.98;;
45316;SDS011;31053;55.870;37.592;2023-05-18T12:31:05;2.92;;;1.67;;
45316;SDS011;31053;55.870;37.592;2023-05-18T12:34:22;2.67;;;1.70;;
45316;SDS011;31053;55.870;37.592;2023-05-18T12:37:43;3.85;;;1.63;;
45316;SDS011;31053;55.870;37.592;2023-05-18T12:40:53;4.30;;;1.63;;
45316;SDS011;31053;55.870;37.592;2023-05-18T12:47:03;3.85;;;1.75;;
45316;SDS011;31053;55.870;37.592;2023-05-18T12:50:08;2.90;;;1.70;;
45316;SDS011;31053;55.870;37.592;2023-05-18T12:53:14;3.15;;;1.80;;
45316;SDS011;31053;55.870;37.592;2023-05-18T12:56:20;4.80;;;1.33;;
45316;SDS011;31053;55.870;37.592;2023-05-18T12:59:28;10.32;;;2.33;;
45316;SDS011;31053;55.870;37.592;2023-05-18T13:05:40;4.13;;;2.15;;
45316;SDS011;31053;55.870;37.592;2023-05-18T13:08:47;5.95;;;1.90;;
45316;SDS011;31053;55.870;37.592;2023-05-18T13:11:52;6.15;;;2.40;;
45316;SDS011;31053;55.870;37.592;2023-05-18T13:15:23;5.78;;;1.98;;
45316;SDS011;31053;55.870;37.592;2023-05-18T13:18:28;7.60;;;1.95;;
45316;SDS011;31053;55.870;37.592;2023-05-18T13:21:33;9.40;;;1.88;;
45316;SDS011;31053;55.870;37.592;2023-05-18T13:24:38;7.13;;;2.80;;
45316;SDS011;31053;55.870;37.592;2023-05-18T13:27:45;6.43;;;2.22;;
45316;SDS011;31053;55.870;37.592;2023-05-18T13:30:52;3.90;;;2.10;;
45316;SDS011;31053;55.870;37.592;2023-05-18T13:33:58;6.57;;;2.20;;
45316;SDS011;31053;55.870;37.592;2023-05-18T13:37:06;5.78;;;2.03;;
45316;SDS011;31053;55.870;37.592;2023-05-18T13:40:20;7.57;;;1.30;;
45316;SDS011;31053;55.870;37.592;2023-05-18T13:43:27;10.77;;;1.50;;
45316;SDS011;31053;55.870;37.592;2023-05-18T13:46:32;6.43;;;1.63;;
45316;SDS011;31053;55.870;37.592;2023-05-18T13:49:48;3.45;;;1.40;;
45316;SDS011;31053;55.870;37.592;2023-05-18T13:52:54;4.78;;;1.30;;
45316;SDS011;31053;55.870;37.592;2023-05-18T13:55:59;6.00;;;1.10;;
45316;SDS011;31053;55.870;37.592;2023-05-18T13:59:04;5.38;;;1.20;;
45316;SDS011;31053;55.870;37.592;2023-05-18T14:02:09;8.93;;;1.58;;
45316;SDS011;31053;55.870;37.592;2023-05-18T14:05:16;8.98;;;2.22;;
45316;SDS011;31053;55.870;37.592;2023-05-18T14:08:22;6.75;;;2.83;;
45316;SDS011;31053;55.870;37.592;2023-05-18T14:11:29;4.22;;;1.60;;
45316;SDS011;31053;55.870;37.592;2023-05-18T14:14:41;18.52;;;7.75;;
45316;SDS011;31053;55.870;37.592;2023-05-18T14:17:46;9.25;;;3.13;;
45316;SDS011;31053;55.870;37.592;2023-05-18T14:20:52;8.05;;;3.13;;
45316;SDS011;31053;55.870;37.592;2023-05-18T14:23:58;8.85;;;2.05;;
45316;SDS011;31053;55.870;37.592;2023-05-18T14:27:06;6.85;;;1.63;;
45316;SDS011;31053;55.870;37.592;2023-05-18T14:30:11;9.50;;;1.38;;
45316;SDS011;31053;55.870;37.592;2023-05-18T14:33:16;10.73;;;1.92;;
45316;SDS011;31053;55.870;37.592;2023-05-18T14:36:21;11.50;;;2.00;;
45316;SDS011;31053;55.870;37.592;2023-05-18T14:39:26;5.93;;;2.00;;
45316;SDS011;31053;55.870;37.592;2023-05-18T14:42:34;16.40;;;3.28;;
45316;SDS011;31053;55.870;37.592;2023-05-18T14:45:41;13.50;;;2.28;;
45316;SDS011;31053;55.870;37.592;2023-05-18T14:48:47;15.57;;;2.28;;
45316;SDS011;31053;55.870;37.592;2023-05-18T14:51:51;23.40;;;2.35;;
45316;SDS011;31053;55.870;37.592;2023-05-18T14:54:57;11.40;;;2.47;;
45316;SDS011;31053;55.870;37.592;2023-05-18T14:58:03;8.25;;;2.10;;
45316;SDS011;31053;55.870;37.592;2023-05-18T15:01:09;17.38;;;2.08;;
45316;SDS011;31053;55.870;37.592;2023-05-18T15:04:14;13.65;;;2.53;;
45316;SDS011;31053;55.870;37.592;2023-05-18T15:07:18;10.57;;;2.55;;
45316;SDS011;31053;55.870;37.592;2023-05-18T15:10:23;12.48;;;2.47;;
45316;SDS011;31053;55.870;37.592;2023-05-18T15:13:29;11.73;;;2.45;;
45316;SDS011;31053;55.870;37.592;2023-05-18T15:16:38;10.07;;;2.70;;
45316;SDS011;31053;55.870;37.592;2023-05-18T15:34:16;21.38;;;5.00;;
45316;SDS011;31053;55.870;37.592;2023-05-18T15:37:28;7.30;;;2.60;;
45316;SDS011;31053;55.870;37.592;2023-05-18T15:40:34;16.42;;;3.40;;
45316;SDS011;31053;55.870;37.592;2023-05-18T15:52:08;16.27;;;2.90;;
45316;SDS011;31053;55.870;37.592;2023-05-18T15:55:13;12.38;;;1.88;;
45316;SDS011;31053;55.870;37.592;2023-05-18T15:58:18;7.32;;;2.05;;
45316;SDS011;31053;55.870;37.592;2023-05-18T16:01:23;14.13;;;2.17;;
45316;SDS011;31053;55.870;37.592;2023-05-18T16:04:33;10.88;;;2.20;;
45316;SDS011;31053;55.870;37.592;2023-05-18T16:07:38;18.15;;;3.33;;
45316;SDS011;31053;55.870;37.592;2023-05-18T16:10:50;14.32;;;2.85;;
45316;SDS011;31053;55.870;37.592;2023-05-18T16:13:58;9.27;;;3.10;;
45316;SDS011;31053;55.870;37.592;2023-05-18T16:17:03;13.07;;;2.03;;
45316;SDS011;31053;55.870;37.592;2023-05-18T16:20:10;6.63;;;1.95;;
45316;SDS011;31053;55.870;37.592;2023-05-18T16:23:16;18.60;;;3.10;;
45316;SDS011;31053;55.870;37.592;2023-05-18T16:26:21;16.08;;;4.50;;
45316;SDS011;31053;55.870;37.592;2023-05-18T16:29:27;12.55;;;3.90;;
45316;SDS011;31053;55.870;37.592;2023-05-18T16:32:33;13.47;;;3.77;;
45316;SDS011;31053;55.870;37.592;2023-05-18T16:35:38;10.15;;;2.10;;
45316;SDS011;31053;55.870;37.592;2023-05-18T16:38:45;11.85;;;3.03;;
45316;SDS011;31053;55.870;37.592;2023-05-18T16:41:50;20.08;;;3.17;;
45316;SDS011;31053;55.870;37.592;2023-05-18T16:44:56;17.40;;;3.08;;
45316;SDS011;31053;55.870;37.592;2023-05-18T16:48:01;21.17;;;4.07;;
45316;SDS011;31053;55.870;37.592;2023-05-18T16:51:06;10.73;;;3.45;;
45316;SDS011;31053;55.870;37.592;2023-05-18T16:54:11;9.32;;;3.05;;
45316;SDS011;31053;55.870;37.592;2023-05-18T16:57:16;12.18;;;3.95;;
45316;SDS011;31053;55.870;37.592;2023-05-18T17:00:25;13.38;;;3.83;;
45316;SDS011;31053;55.870;37.592;2023-05-18T17:03:33;5.13;;;2.70;;
45316;SDS011;31053;55.870;37.592;2023-05-18T17:09:44;8.15;;;2.78;;
45316;SDS011;31053;55.870;37.592;2023-05-18T17:12:52;14.48;;;3.20;;
45316;SDS011;31053;55.870;37.592;2023-05-18T17:16:00;10.75;;;4.03;;
45316;SDS011;31053;55.870;37.592;2023-05-18T17:19:08;6.85;;;3.30;;
45316;SDS011;31053;55.870;37.592;2023-05-18T17:22:13;14.23;;;4.70;;
45316;SDS011;31053;55.870;37.592;2023-05-18T17:25:18;9.20;;;4.28;;
45316;SDS011;31053;55.870;37.592;2023-05-18T17:28:23;8.52;;;2.70;;
45316;SDS011;31053;55.870;37.592;2023-05-18T17:31:29;8.30;;;3.03;;
45316;SDS011;31053;55.870;37.592;2023-05-18T17:34:34;13.05;;;4.88;;
45316;SDS011;31053;55.870;37.592;2023-05-18T17:44:31;20.02;;;7.93;;
45316;SDS011;31053;55.870;37.592;2023-05-18T17:47:35;25.48;;;13.38;;
45316;SDS011;31053;55.870;37.592;2023-05-18T17:50:41;15.93;;;6.20;;
45316;SDS011;31053;55.870;37.592;2023-05-18T17:53:49;15.75;;;4.63;;
45316;SDS011;31053;55.870;37.592;2023-05-18T17:56:54;11.98;;;3.08;;
45316;SDS011;31053;55.870;37.592;2023-05-18T17:59:59;13.98;;;2.78;;
45316;SDS011;31053;55.870;37.592;2023-05-18T18:03:09;9.90;;;2.85;;
45316;SDS011;31053;55.870;37.592;2023-05-18T18:09:25;10.82;;;2.83;;
45316;SDS011;31053;55.870;37.592;2023-05-18T18:12:30;10.35;;;3.85;;
45316;SDS011;31053;55.870;37.592;2023-05-18T18:15:35;11.75;;;3.35;;
45316;SDS011;31053;55.870;37.592;2023-05-18T18:18:39;8.15;;;2.50;;
45316;SDS011;31053;55.870;37.592;2023-05-18T18:21:46;5.28;;;2.60;;
45316;SDS011;31053;55.870;37.592;2023-05-18T18:24:51;9.45;;;3.13;;
45316;SDS011;31053;55.870;37.592;2023-05-18T18:27:56;9.30;;;3.10;;
45316;SDS011;31053;55.870;37.592;2023-05-18T18:31:01;8.73;;;2.38;;
45316;SDS011;31053;55.870;37.592;2023-05-18T18:34:07;7.10;;;2.20;;
45316;SDS011;31053;55.870;37.592;2023-05-18T18:37:18;10.45;;;3.97;;
45316;SDS011;31053;55.870;37.592;2023-05-18T18:40:28;8.18;;;2.55;;
45316;SDS011;31053;55.870;37.592;2023-05-18T18:43:33;9.43;;;2.92;;
45316;SDS011;31053;55.870;37.592;2023-05-18T18:46:41;9.23;;;3.22;;
45316;SDS011;31053;55.870;37.592;2023-05-18T18:49:48;7.40;;;2.53;;
45316;SDS011;31053;55.870;37.592;2023-05-18T18:52:54;4.28;;;1.95;;
45316;SDS011;31053;55.870;37.592;2023-05-18T18:56:03;15.15;;;3.83;;
45316;SDS011;31053;55.870;37.592;2023-05-18T18:59:10;10.02;;;2.58;;
45316;SDS011;31053;55.870;37.592;2023-05-18T19:02:15;8.35;;;2.72;;
45316;SDS011;31053;55.870;37.592;2023-05-18T19:05:20;5.55;;;2.88;;
45316;SDS011;31053;55.870;37.592;2023-05-18T19:08:27;8.13;;;2.55;;
45316;SDS011;31053;55.870;37.592;2023-05-18T19:11:35;9.88;;;2.85;;
45316;SDS011;31053;55.870;37.592;2023-05-18T19:14:40;10.43;;;3.53;;
45316;SDS011;31053;55.870;37.592;2023-05-18T19:17:44;6.15;;;2.63;;
45316;SDS011;31053;55.870;37.592;2023-05-18T19:20:56;4.97;;;2.70;;
45316;SDS011;31053;55.870;37.592;2023-05-18T19:24:04;16.02;;;3.50;;
45316;SDS011;31053;55.870;37.592;2023-05-18T19:27:10;10.43;;;2.50;;
45316;SDS011;31053;55.870;37.592;2023-05-18T19:30:15;8.32;;;2.72;;
45316;SDS011;31053;55.870;37.592;2023-05-18T19:33:24;7.55;;;2.78;;
45316;SDS011;31053;55.870;37.592;2023-05-18T19:36:29;7.75;;;2.72;;
45316;SDS011;31053;55.870;37.592;2023-05-18T19:45:11;11.13;;;3.60;;
45316;SDS011;31053;55.870;37.592;2023-05-18T19:48:56;21.58;;;3.03;;
45316;SDS011;31053;55.870;37.592;2023-05-18T19:52:02;9.13;;;3.65;;
45316;SDS011;31053;55.870;37.592;2023-05-18T19:59:34;5.70;;;3.20;;
45316;SDS011;31053;55.870;37.592;2023-05-18T20:07:53;3.75;;;1.95;;
45316;SDS011;31053;55.870;37.592;2023-05-18T20:10:58;8.10;;;2.95;;
45316;SDS011;31053;55.870;37.592;2023-05-18T20:14:02;8.65;;;3.95;;
45316;SDS011;31053;55.870;37.592;2023-05-18T20:19:29;6.63;;;2.75;;
45316;SDS011;31053;55.870;37.592;2023-05-18T20:22:34;7.03;;;3.00;;
45316;SDS011;31053;55.870;37.592;2023-05-18T20:25:39;11.35;;;3.97;;
45316;SDS011;31053;55.870;37.592;2023-05-18T20:28:48;10.05;;;3.50;;
45316;SDS011;31053;55.870;37.592;2023-05-18T20:31:53;8.32;;;3.97;;
45316;SDS011;31053;55.870;37.592;2023-05-18T20:35:01;8.70;;;3.95;;
45316;SDS011;31053;55.870;37.592;2023-05-18T20:38:10;11.70;;;4.25;;
45316;SDS011;31053;55.870;37.592;2023-05-18T20:41:17;5.70;;;3.45;;
45316;SDS011;31053;55.870;37.592;2023-05-18T20:44:23;6.75;;;3.38;;
45316;SDS011;31053;55.870;37.592;2023-05-18T20:50:13;12.38;;;4.30;;
45316;SDS011;31053;55.870;37.592;2023-05-18T21:18:25;8.45;;;4.10;;
45316;SDS011;31053;55.870;37.592;2023-05-18T21:21:30;8.70;;;4.00;;
45316;SDS011;31053;55.870;37.592;2023-05-18T21:24:35;10.90;;;3.90;;
45316;SDS011;31053;55.870;37.592;2023-05-18T21:27:40;9.18;;;3.63;;
45316;SDS011;31053;55.870;37.592;2023-05-18T21:30:46;23.50;;;4.10;;